sensor_id;sensor_type;location;lat;lon;timestamp;temperature;humidity
15072;DHT22;7635;56.696;13.002;2022-11-20T00:01:04;-0.20;99.90
15072;DHT22;7635;56.696;13.002;2022-11-20T00:03:31;-0.20;99.90
15072;DHT22;7635;56.696;13.002;2022-11-20T00:06:00;-0.20;99.90
15072;DHT22;7635;56.696;13.002;2022-11-20T00:08:27;-0.20;99.90
15072;DHT22;7635;56.696;13.002;2022-11-20T00:10:54;-0.20;99.90
15072;DHT22;7635;56.696;13.002;2022-11-20T00:13:21;-0.20;99.90
15072;DHT22;7635;56.696;13.002;2022-11-20T00:15:48;-0.20;99.90
15072;DHT22;7635;56.696;13.002;2022-11-20T00:18:14;-0.30;99.90
15072;DHT22;7635;56.696;13.002;2022-11-20T00:20:41;-0.30;99.90
15072;DHT22;7635;56.696;13.002;2022-11-20T00:23:12;-0.30;99.90
15072;DHT22;7635;56.696;13.002;2022-11-20T00:25:39;-0.30;99.90
15072;DHT22;7635;56.696;13.002;2022-11-20T00:28:05;-0.30;99.90
15072;DHT22;7635;56.696;13.002;2022-11-20T00:30:32;-0.30;99.90
15072;DHT22;7635;56.696;13.002;2022-11-20T00:32:59;-0.30;99.90
15072;DHT22;7635;56.696;13.002;2022-11-20T00:35:26;-0.30;99.90
15072;DHT22;7635;56.696;13.002;2022-11-20T00:37:52;-0.30;99.90
15072;DHT22;7635;56.696;13.002;2022-11-20T00:40:21;-0.30;99.90
15072;DHT22;7635;56.696;13.002;2022-11-20T00:42:47;-0.40;99.90
15072;DHT22;7635;56.696;13.002;2022-11-20T00:45:14;-0.40;99.90
15072;DHT22;7635;56.696;13.002;2022-11-20T00:47:41;-0.40;99.90
15072;DHT22;7635;56.696;13.002;2022-11-20T00:50:08;-0.40;99.90
15072;DHT22;7635;56.696;13.002;2022-11-20T00:52:35;-0.40;99.90
15072;DHT22;7635;56.696;13.002;2022-11-20T00:55:02;-0.40;99.90
15072;DHT22;7635;56.696;13.002;2022-11-20T00:57:30;-0.40;99.90
15072;DHT22;7635;56.696;13.002;2022-11-20T00:59:57;-0.50;99.90
15072;DHT22;7635;56.696;13.002;2022-11-20T01:02:24;-0.50;99.90
15072;DHT22;7635;56.696;13.002;2022-11-20T01:04:51;-0.50;99.90
15072;DHT22;7635;56.696;13.002;2022-11-20T01:07:18;-0.50;99.90
15072;DHT22;7635;56.696;13.002;2022-11-20T01:09:44;-0.50;99.90
15072;DHT22;7635;56.696;13.002;2022-11-20T01:12:11;-0.50;99.90
15072;DHT22;7635;56.696;13.002;2022-11-20T01:14:39;-0.50;99.90
15072;DHT22;7635;56.696;13.002;2022-11-20T01:17:06;-0.60;99.90
15072;DHT22;7635;56.696;13.002;2022-11-20T01:19:33;-0.60;99.90
15072;DHT22;7635;56.696;13.002;2022-11-20T01:22:00;-0.60;99.90
15072;DHT22;7635;56.696;13.002;2022-11-20T01:24:26;-0.60;99.90
15072;DHT22;7635;56.696;13.002;2022-11-20T01:26:53;-0.60;99.90
15072;DHT22;7635;56.696;13.002;2022-11-20T01:29:21;-0.60;99.90
15072;DHT22;7635;56.696;13.002;2022-11-20T01:31:50;-0.70;99.90
15072;DHT22;7635;56.696;13.002;2022-11-20T01:34:19;-0.70;99.90
15072;DHT22;7635;56.696;13.002;2022-11-20T01:36:46;-0.70;99.90
15072;DHT22;7635;56.696;13.002;2022-11-20T01:39:16;-0.70;99.90
15072;DHT22;7635;56.696;13.002;2022-11-20T01:41:44;-0.80;99.90
15072;DHT22;7635;56.696;13.002;2022-11-20T01:44:52;-0.80;99.90
15072;DHT22;7635;56.696;13.002;2022-11-20T01:47:25;-0.80;99.90
15072;DHT22;7635;56.696;13.002;2022-11-20T01:49:57;-0.90;99.90
15072;DHT22;7635;56.696;13.002;2022-11-20T01:52:30;-0.90;99.90
15072;DHT22;7635;56.696;13.002;2022-11-20T01:55:01;-0.90;99.90
15072;DHT22;7635;56.696;13.002;2022-11-20T01:57:33;-0.90;99.90
15072;DHT22;7635;56.696;13.002;2022-11-20T02:00:04;-0.90;99.90
15072;DHT22;7635;56.696;13.002;2022-11-20T02:02:34;-0.80;99.90
15072;DHT22;7635;56.696;13.002;2022-11-20T02:05:12;-0.80;99.90
15072;DHT22;7635;56.696;13.002;2022-11-20T02:07:41;-0.80;99.90
15072;DHT22;7635;56.696;13.002;2022-11-20T02:10:08;-0.80;99.90
15072;DHT22;7635;56.696;13.002;2022-11-20T02:12:35;-0.80;99.90
15072;DHT22;7635;56.696;13.002;2022-11-20T02:15:19;-0.80;99.90
15072;DHT22;7635;56.696;13.002;2022-11-20T02:17:48;-0.80;99.90
15072;DHT22;7635;56.696;13.002;2022-11-20T02:20:14;-0.80;99.90
15072;DHT22;7635;56.696;13.002;2022-11-20T02:22:48;-0.80;99.90
15072;DHT22;7635;56.696;13.002;2022-11-20T02:25:19;-0.80;99.90
15072;DHT22;7635;56.696;13.002;2022-11-20T02:27:46;-0.80;99.90
15072;DHT22;7635;56.696;13.002;2022-11-20T02:30:14;-0.80;99.90
15072;DHT22;7635;56.696;13.002;2022-11-20T02:32:41;-0.80;99.90
15072;DHT22;7635;56.696;13.002;2022-11-20T02:35:35;-0.80;99.90
15072;DHT22;7635;56.696;13.002;2022-11-20T02:37:58;-0.80;99.90
15072;DHT22;7635;56.696;13.002;2022-11-20T02:40:27;-0.90;99.90
15072;DHT22;7635;56.696;13.002;2022-11-20T02:42:54;-0.90;99.90
15072;DHT22;7635;56.696;13.002;2022-11-20T02:45:22;-0.90;99.90
15072;DHT22;7635;56.696;13.002;2022-11-20T02:47:49;-0.90;99.90
15072;DHT22;7635;56.696;13.002;2022-11-20T02:50:16;-0.90;99.90
15072;DHT22;7635;56.696;13.002;2022-11-20T02:52:43;-0.90;99.90
15072;DHT22;7635;56.696;13.002;2022-11-20T02:55:09;-0.90;99.90
15072;DHT22;7635;56.696;13.002;2022-11-20T02:57:39;-0.90;99.90
15072;DHT22;7635;56.696;13.002;2022-11-20T03:00:07;-0.90;99.90
15072;DHT22;7635;56.696;13.002;2022-11-20T03:02:34;-0.90;99.90
15072;DHT22;7635;56.696;13.002;2022-11-20T03:05:01;-1.00;99.90
15072;DHT22;7635;56.696;13.002;2022-11-20T03:07:28;-1.00;99.90
15072;DHT22;7635;56.696;13.002;2022-11-20T03:09:55;-1.00;99.90
15072;DHT22;7635;56.696;13.002;2022-11-20T03:12:22;-1.00;99.90
15072;DHT22;7635;56.696;13.002;2022-11-20T03:14:50;-1.00;99.90
15072;DHT22;7635;56.696;13.002;2022-11-20T03:17:16;-1.00;99.90
15072;DHT22;7635;56.696;13.002;2022-11-20T03:19:43;-1.00;99.90
15072;DHT22;7635;56.696;13.002;2022-11-20T03:22:10;-1.00;99.90
15072;DHT22;7635;56.696;13.002;2022-11-20T03:24:37;-1.00;99.90
15072;DHT22;7635;56.696;13.002;2022-11-20T03:27:03;-1.00;99.90
15072;DHT22;7635;56.696;13.002;2022-11-20T03:29:30;-1.00;99.90
15072;DHT22;7635;56.696;13.002;2022-11-20T03:31:59;-1.00;99.90
15072;DHT22;7635;56.696;13.002;2022-11-20T03:34:25;-1.00;99.90
15072;DHT22;7635;56.696;13.002;2022-11-20T03:36:52;-1.00;99.90
15072;DHT22;7635;56.696;13.002;2022-11-20T03:39:19;-1.00;99.90
15072;DHT22;7635;56.696;13.002;2022-11-20T03:41:46;-1.00;99.90
15072;DHT22;7635;56.696;13.002;2022-11-20T03:44:12;-0.90;99.90
15072;DHT22;7635;56.696;13.002;2022-11-20T03:46:39;-1.00;99.90
15072;DHT22;7635;56.696;13.002;2022-11-20T03:49:07;-1.00;99.90
15072;DHT22;7635;56.696;13.002;2022-11-20T03:51:35;-1.00;99.90
15072;DHT22;7635;56.696;13.002;2022-11-20T03:54:04;-0.90;99.90
15072;DHT22;7635;56.696;13.002;2022-11-20T03:56:33;-0.90;99.90
15072;DHT22;7635;56.696;13.002;2022-11-20T03:59:00;-0.90;99.90
15072;DHT22;7635;56.696;13.002;2022-11-20T04:01:29;-0.90;99.90
15072;DHT22;7635;56.696;13.002;2022-11-20T04:03:57;-0.90;99.90
15072;DHT22;7635;56.696;13.002;2022-11-20T04:06:26;-0.90;99.90
15072;DHT22;7635;56.696;13.002;2022-11-20T04:08:54;-0.90;99.90
15072;DHT22;7635;56.696;13.002;2022-11-20T04:11:23;-0.90;99.90
15072;DHT22;7635;56.696;13.002;2022-11-20T04:13:52;-0.90;99.90
15072;DHT22;7635;56.696;13.002;2022-11-20T04:16:20;-0.90;99.90
15072;DHT22;7635;56.696;13.002;2022-11-20T04:18:51;-0.90;99.90
15072;DHT22;7635;56.696;13.002;2022-11-20T04:21:19;-0.90;99.90
15072;DHT22;7635;56.696;13.002;2022-11-20T04:23:47;-0.90;99.90
15072;DHT22;7635;56.696;13.002;2022-11-20T04:26:14;-0.90;99.90
15072;DHT22;7635;56.696;13.002;2022-11-20T04:28:40;-0.90;99.90
15072;DHT22;7635;56.696;13.002;2022-11-20T04:31:09;-0.90;99.90
15072;DHT22;7635;56.696;13.002;2022-11-20T04:33:36;-0.90;99.90
15072;DHT22;7635;56.696;13.002;2022-11-20T04:36:04;-0.90;99.90
15072;DHT22;7635;56.696;13.002;2022-11-20T04:38:31;-0.90;99.90
15072;DHT22;7635;56.696;13.002;2022-11-20T04:41:01;-0.90;99.90
15072;DHT22;7635;56.696;13.002;2022-11-20T04:43:29;-0.90;99.90
15072;DHT22;7635;56.696;13.002;2022-11-20T04:45:57;-0.90;99.90
15072;DHT22;7635;56.696;13.002;2022-11-20T04:48:25;-0.90;99.90
15072;DHT22;7635;56.696;13.002;2022-11-20T04:50:53;-0.90;99.90
15072;DHT22;7635;56.696;13.002;2022-11-20T04:53:23;-0.90;99.90
15072;DHT22;7635;56.696;13.002;2022-11-20T04:55:50;-0.90;99.90
15072;DHT22;7635;56.696;13.002;2022-11-20T04:58:18;-0.90;99.90
15072;DHT22;7635;56.696;13.002;2022-11-20T05:00:51;-0.90;99.90
15072;DHT22;7635;56.696;13.002;2022-11-20T05:03:18;-0.90;99.90
15072;DHT22;7635;56.696;13.002;2022-11-20T05:05:45;-1.00;99.90
15072;DHT22;7635;56.696;13.002;2022-11-20T05:08:11;-1.00;99.90
15072;DHT22;7635;56.696;13.002;2022-11-20T05:10:38;-1.00;99.90
15072;DHT22;7635;56.696;13.002;2022-11-20T05:13:05;-1.00;99.90
15072;DHT22;7635;56.696;13.002;2022-11-20T05:15:33;-1.00;99.90
15072;DHT22;7635;56.696;13.002;2022-11-20T05:18:00;-1.10;99.90
15072;DHT22;7635;56.696;13.002;2022-11-20T05:20:27;-1.00;99.90
15072;DHT22;7635;56.696;13.002;2022-11-20T05:22:56;-1.00;99.90
15072;DHT22;7635;56.696;13.002;2022-11-20T05:25:23;-1.10;99.90
15072;DHT22;7635;56.696;13.002;2022-11-20T05:27:50;-1.10;99.90
15072;DHT22;7635;56.696;13.002;2022-11-20T05:30:17;-1.10;99.90
15072;DHT22;7635;56.696;13.002;2022-11-20T05:32:45;-1.10;99.90
15072;DHT22;7635;56.696;13.002;2022-11-20T05:35:12;-1.10;99.90
15072;DHT22;7635;56.696;13.002;2022-11-20T05:37:39;-1.10;99.90
15072;DHT22;7635;56.696;13.002;2022-11-20T05:40:07;-1.10;99.90
15072;DHT22;7635;56.696;13.002;2022-11-20T05:42:34;-1.10;99.90
15072;DHT22;7635;56.696;13.002;2022-11-20T05:45:03;-1.20;99.90
15072;DHT22;7635;56.696;13.002;2022-11-20T05:47:33;-1.20;99.90
15072;DHT22;7635;56.696;13.002;2022-11-20T05:50:02;-1.20;99.90
15072;DHT22;7635;56.696;13.002;2022-11-20T05:52:29;-1.20;99.90
15072;DHT22;7635;56.696;13.002;2022-11-20T05:54:56;-1.20;99.90
15072;DHT22;7635;56.696;13.002;2022-11-20T05:57:22;-1.20;99.90
15072;DHT22;7635;56.696;13.002;2022-11-20T05:59:49;-1.20;99.90
15072;DHT22;7635;56.696;13.002;2022-11-20T06:02:16;-1.20;99.90
15072;DHT22;7635;56.696;13.002;2022-11-20T06:04:43;-1.20;99.90
15072;DHT22;7635;56.696;13.002;2022-11-20T06:07:12;-1.30;99.90
15072;DHT22;7635;56.696;13.002;2022-11-20T06:09:38;-1.30;99.90
15072;DHT22;7635;56.696;13.002;2022-11-20T06:12:05;-1.30;99.90
15072;DHT22;7635;56.696;13.002;2022-11-20T06:14:33;-1.30;99.90
15072;DHT22;7635;56.696;13.002;2022-11-20T06:17:00;-1.30;99.90
15072;DHT22;7635;56.696;13.002;2022-11-20T06:19:26;-1.30;99.90
15072;DHT22;7635;56.696;13.002;2022-11-20T06:21:53;-1.40;99.90
15072;DHT22;7635;56.696;13.002;2022-11-20T06:24:21;-1.40;99.90
15072;DHT22;7635;56.696;13.002;2022-11-20T06:26:50;-1.40;99.90
15072;DHT22;7635;56.696;13.002;2022-11-20T06:29:17;-1.40;99.90
15072;DHT22;7635;56.696;13.002;2022-11-20T06:31:44;-1.40;99.90
15072;DHT22;7635;56.696;13.002;2022-11-20T06:34:11;-1.40;99.90
15072;DHT22;7635;56.696;13.002;2022-11-20T06:36:38;-1.50;99.90
15072;DHT22;7635;56.696;13.002;2022-11-20T06:39:04;-1.50;99.90
15072;DHT22;7635;56.696;13.002;2022-11-20T06:41:33;-1.50;99.90
15072;DHT22;7635;56.696;13.002;2022-11-20T06:43:59;-1.50;99.90
15072;DHT22;7635;56.696;13.002;2022-11-20T06:46:26;-1.50;99.90
15072;DHT22;7635;56.696;13.002;2022-11-20T06:48:53;-1.50;99.90
15072;DHT22;7635;56.696;13.002;2022-11-20T06:51:20;-1.50;99.90
15072;DHT22;7635;56.696;13.002;2022-11-20T06:53:47;-1.60;99.90
15072;DHT22;7635;56.696;13.002;2022-11-20T06:56:13;-1.60;99.90
15072;DHT22;7635;56.696;13.002;2022-11-20T06:58:42;-1.60;99.90
15072;DHT22;7635;56.696;13.002;2022-11-20T07:01:10;-1.60;99.90
15072;DHT22;7635;56.696;13.002;2022-11-20T07:03:38;-1.60;99.90
15072;DHT22;7635;56.696;13.002;2022-11-20T07:06:05;-1.60;99.90
15072;DHT22;7635;56.696;13.002;2022-11-20T07:08:32;-1.60;99.90
15072;DHT22;7635;56.696;13.002;2022-11-20T07:11:01;-1.60;99.90
15072;DHT22;7635;56.696;13.002;2022-11-20T07:13:29;-1.70;99.90
15072;DHT22;7635;56.696;13.002;2022-11-20T07:16:00;-1.70;99.90
15072;DHT22;7635;56.696;13.002;2022-11-20T07:18:28;-1.70;99.90
15072;DHT22;7635;56.696;13.002;2022-11-20T07:20:54;-1.70;99.90
15072;DHT22;7635;56.696;13.002;2022-11-20T07:23:21;-1.70;99.90
15072;DHT22;7635;56.696;13.002;2022-11-20T07:25:48;-1.70;99.90
15072;DHT22;7635;56.696;13.002;2022-11-20T07:28:15;-1.70;99.90
15072;DHT22;7635;56.696;13.002;2022-11-20T07:30:42;-1.80;99.90
15072;DHT22;7635;56.696;13.002;2022-11-20T07:33:10;-1.80;99.90
15072;DHT22;7635;56.696;13.002;2022-11-20T07:35:37;-1.80;99.90
15072;DHT22;7635;56.696;13.002;2022-11-20T07:38:03;-1.80;99.90
15072;DHT22;7635;56.696;13.002;2022-11-20T07:40:30;-1.80;99.90
15072;DHT22;7635;56.696;13.002;2022-11-20T07:42:57;-1.80;99.90
15072;DHT22;7635;56.696;13.002;2022-11-20T07:45:24;-1.80;99.90
15072;DHT22;7635;56.696;13.002;2022-11-20T07:47:51;-1.80;99.90
15072;DHT22;7635;56.696;13.002;2022-11-20T07:50:19;-1.80;99.90
15072;DHT22;7635;56.696;13.002;2022-11-20T07:52:46;-1.80;99.90
15072;DHT22;7635;56.696;13.002;2022-11-20T07:55:13;-1.80;99.90
15072;DHT22;7635;56.696;13.002;2022-11-20T07:57:40;-1.80;99.90
15072;DHT22;7635;56.696;13.002;2022-11-20T08:00:09;-1.80;99.90
15072;DHT22;7635;56.696;13.002;2022-11-20T08:02:37;-1.80;99.90
15072;DHT22;7635;56.696;13.002;2022-11-20T08:05:05;-1.80;99.90
15072;DHT22;7635;56.696;13.002;2022-11-20T08:07:36;-1.70;99.90
15072;DHT22;7635;56.696;13.002;2022-11-20T08:10:05;-1.70;99.90
15072;DHT22;7635;56.696;13.002;2022-11-20T08:12:32;-1.70;99.90
15072;DHT22;7635;56.696;13.002;2022-11-20T08:15:16;-1.70;99.90
15072;DHT22;7635;56.696;13.002;2022-11-20T08:17:43;-1.70;99.90
15072;DHT22;7635;56.696;13.002;2022-11-20T08:20:10;-1.60;99.90
15072;DHT22;7635;56.696;13.002;2022-11-20T08:22:38;-1.60;99.90
15072;DHT22;7635;56.696;13.002;2022-11-20T08:25:05;-1.60;99.90
15072;DHT22;7635;56.696;13.002;2022-11-20T08:27:32;-1.50;99.90
15072;DHT22;7635;56.696;13.002;2022-11-20T08:29:59;-1.50;99.90
15072;DHT22;7635;56.696;13.002;2022-11-20T08:32:26;-1.50;99.90
15072;DHT22;7635;56.696;13.002;2022-11-20T08:34:52;-1.40;99.90
15072;DHT22;7635;56.696;13.002;2022-11-20T08:37:19;-1.40;99.90
15072;DHT22;7635;56.696;13.002;2022-11-20T08:39:47;-1.40;99.90
15072;DHT22;7635;56.696;13.002;2022-11-20T08:42:14;-1.30;99.90
15072;DHT22;7635;56.696;13.002;2022-11-20T08:44:41;-1.20;99.90
15072;DHT22;7635;56.696;13.002;2022-11-20T08:47:08;-1.20;99.90
15072;DHT22;7635;56.696;13.002;2022-11-20T08:49:35;-1.10;99.90
15072;DHT22;7635;56.696;13.002;2022-11-20T08:52:02;-1.10;99.90
15072;DHT22;7635;56.696;13.002;2022-11-20T08:54:28;-1.00;99.90
15072;DHT22;7635;56.696;13.002;2022-11-20T08:56:56;-0.90;99.90
15072;DHT22;7635;56.696;13.002;2022-11-20T08:59:23;-0.80;99.90
15072;DHT22;7635;56.696;13.002;2022-11-20T09:01:50;-0.70;99.90
15072;DHT22;7635;56.696;13.002;2022-11-20T09:04:17;-0.70;99.90
15072;DHT22;7635;56.696;13.002;2022-11-20T09:06:43;-0.60;99.90
15072;DHT22;7635;56.696;13.002;2022-11-20T09:09:10;-0.50;99.90
15072;DHT22;7635;56.696;13.002;2022-11-20T09:11:37;-0.50;99.90
15072;DHT22;7635;56.696;13.002;2022-11-20T09:14:05;-0.40;99.90
15072;DHT22;7635;56.696;13.002;2022-11-20T09:16:32;-0.40;99.90
15072;DHT22;7635;56.696;13.002;2022-11-20T09:18:58;-0.40;99.90
15072;DHT22;7635;56.696;13.002;2022-11-20T09:21:25;-0.40;99.90
15072;DHT22;7635;56.696;13.002;2022-11-20T09:23:52;-0.40;99.90
15072;DHT22;7635;56.696;13.002;2022-11-20T09:26:19;-0.40;99.90
15072;DHT22;7635;56.696;13.002;2022-11-20T09:28:45;-0.40;99.90
15072;DHT22;7635;56.696;13.002;2022-11-20T09:31:21;-0.40;99.90
15072;DHT22;7635;56.696;13.002;2022-11-20T09:33:48;-0.40;99.90
15072;DHT22;7635;56.696;13.002;2022-11-20T09:36:15;-0.40;99.90
15072;DHT22;7635;56.696;13.002;2022-11-20T09:38:44;-0.30;99.90
15072;DHT22;7635;56.696;13.002;2022-11-20T09:41:26;-0.30;99.90
15072;DHT22;7635;56.696;13.002;2022-11-20T09:44:04;-0.20;99.90
15072;DHT22;7635;56.696;13.002;2022-11-20T09:46:40;-0.10;99.90
15072;DHT22;7635;56.696;13.002;2022-11-20T09:49:23;0.00;99.90
15072;DHT22;7635;56.696;13.002;2022-11-20T09:51:57;0.20;99.90
15072;DHT22;7635;56.696;13.002;2022-11-20T09:54:29;0.30;99.90
15072;DHT22;7635;56.696;13.002;2022-11-20T09:57:00;0.60;99.90
15072;DHT22;7635;56.696;13.002;2022-11-20T09:59:36;0.90;99.90
15072;DHT22;7635;56.696;13.002;2022-11-20T10:02:25;1.40;99.90
15072;DHT22;7635;56.696;13.002;2022-11-20T10:04:58;1.70;99.90
15072;DHT22;7635;56.696;13.002;2022-11-20T10:07:30;1.90;99.90
15072;DHT22;7635;56.696;13.002;2022-11-20T10:09:59;2.00;99.90
15072;DHT22;7635;56.696;13.002;2022-11-20T10:12:36;2.00;99.90
15072;DHT22;7635;56.696;13.002;2022-11-20T10:15:18;2.00;99.90
15072;DHT22;7635;56.696;13.002;2022-11-20T10:18:01;2.00;99.90
15072;DHT22;7635;56.696;13.002;2022-11-20T10:20:40;1.90;99.90
15072;DHT22;7635;56.696;13.002;2022-11-20T10:23:33;1.80;99.90
15072;DHT22;7635;56.696;13.002;2022-11-20T10:26:17;1.70;99.90
15072;DHT22;7635;56.696;13.002;2022-11-20T10:28:56;1.70;99.90
15072;DHT22;7635;56.696;13.002;2022-11-20T10:31:31;1.70;99.90
15072;DHT22;7635;56.696;13.002;2022-11-20T10:34:05;1.70;99.90
15072;DHT22;7635;56.696;13.002;2022-11-20T10:36:36;1.70;99.90
15072;DHT22;7635;56.696;13.002;2022-11-20T10:39:07;1.60;99.90
15072;DHT22;7635;56.696;13.002;2022-11-20T10:41:42;1.60;99.90
15072;DHT22;7635;56.696;13.002;2022-11-20T10:44:14;1.60;99.90
15072;DHT22;7635;56.696;13.002;2022-11-20T10:47:02;1.50;99.90
15072;DHT22;7635;56.696;13.002;2022-11-20T10:49:33;1.50;99.90
15072;DHT22;7635;56.696;13.002;2022-11-20T10:52:07;1.50;99.90
15072;DHT22;7635;56.696;13.002;2022-11-20T10:54:44;1.40;99.90
15072;DHT22;7635;56.696;13.002;2022-11-20T10:57:21;1.40;99.90
15072;DHT22;7635;56.696;13.002;2022-11-20T10:59:59;1.40;99.90
15072;DHT22;7635;56.696;13.002;2022-11-20T11:02:34;1.40;99.90
15072;DHT22;7635;56.696;13.002;2022-11-20T11:07:54;1.40;99.90
15072;DHT22;7635;56.696;13.002;2022-11-20T11:10:26;1.40;99.90
15072;DHT22;7635;56.696;13.002;2022-11-20T11:12:55;1.30;99.90
15072;DHT22;7635;56.696;13.002;2022-11-20T11:15:28;1.30;99.90
15072;DHT22;7635;56.696;13.002;2022-11-20T11:17:55;1.30;99.90
15072;DHT22;7635;56.696;13.002;2022-11-20T11:20:25;1.30;99.90
15072;DHT22;7635;56.696;13.002;2022-11-20T11:22:53;1.30;99.90
15072;DHT22;7635;56.696;13.002;2022-11-20T11:25:28;1.30;99.90
15072;DHT22;7635;56.696;13.002;2022-11-20T11:27:57;1.20;99.90
15072;DHT22;7635;56.696;13.002;2022-11-20T11:30:25;1.30;99.90
15072;DHT22;7635;56.696;13.002;2022-11-20T11:33:03;1.30;99.90
15072;DHT22;7635;56.696;13.002;2022-11-20T11:35:32;1.30;99.90
15072;DHT22;7635;56.696;13.002;2022-11-20T11:38:05;1.30;99.90
15072;DHT22;7635;56.696;13.002;2022-11-20T11:40:34;1.30;99.90
15072;DHT22;7635;56.696;13.002;2022-11-20T11:43:05;1.30;99.90
15072;DHT22;7635;56.696;13.002;2022-11-20T11:45:53;1.30;99.90
15072;DHT22;7635;56.696;13.002;2022-11-20T11:48:20;1.30;99.90
15072;DHT22;7635;56.696;13.002;2022-11-20T11:50:50;1.40;99.90
15072;DHT22;7635;56.696;13.002;2022-11-20T11:53:18;1.40;99.90
15072;DHT22;7635;56.696;13.002;2022-11-20T11:55:47;1.40;99.90
15072;DHT22;7635;56.696;13.002;2022-11-20T11:58:29;1.40;99.90
15072;DHT22;7635;56.696;13.002;2022-11-20T12:01:03;1.40;99.90
15072;DHT22;7635;56.696;13.002;2022-11-20T12:03:35;1.40;99.90
15072;DHT22;7635;56.696;13.002;2022-11-20T12:06:06;1.40;99.90
15072;DHT22;7635;56.696;13.002;2022-11-20T12:08:41;1.40;99.90
15072;DHT22;7635;56.696;13.002;2022-11-20T12:11:13;1.40;99.90
15072;DHT22;7635;56.696;13.002;2022-11-20T12:13:47;1.40;99.90
15072;DHT22;7635;56.696;13.002;2022-11-20T12:16:17;1.40;99.90
15072;DHT22;7635;56.696;13.002;2022-11-20T12:18:46;1.40;99.90
15072;DHT22;7635;56.696;13.002;2022-11-20T12:21:31;1.40;99.90
15072;DHT22;7635;56.696;13.002;2022-11-20T12:24:13;1.40;99.90
15072;DHT22;7635;56.696;13.002;2022-11-20T12:26:52;1.30;99.90
15072;DHT22;7635;56.696;13.002;2022-11-20T12:29:30;1.30;99.90
15072;DHT22;7635;56.696;13.002;2022-11-20T12:32:15;1.30;99.90
15072;DHT22;7635;56.696;13.002;2022-11-20T12:34:51;1.30;99.90
15072;DHT22;7635;56.696;13.002;2022-11-20T12:37:33;1.30;99.90
15072;DHT22;7635;56.696;13.002;2022-11-20T12:40:09;1.30;99.90
15072;DHT22;7635;56.696;13.002;2022-11-20T12:42:52;1.30;99.90
15072;DHT22;7635;56.696;13.002;2022-11-20T12:45:50;1.30;99.90
15072;DHT22;7635;56.696;13.002;2022-11-20T12:48:47;1.30;99.90
15072;DHT22;7635;56.696;13.002;2022-11-20T12:51:38;1.30;99.90
15072;DHT22;7635;56.696;13.002;2022-11-20T12:54:35;1.30;99.90
15072;DHT22;7635;56.696;13.002;2022-11-20T12:57:09;1.30;99.90
15072;DHT22;7635;56.696;13.002;2022-11-20T13:00:02;1.20;99.90
15072;DHT22;7635;56.696;13.002;2022-11-20T13:02:36;1.20;99.90
15072;DHT22;7635;56.696;13.002;2022-11-20T13:05:31;1.20;99.90
15072;DHT22;7635;56.696;13.002;2022-11-20T13:08:02;1.20;99.90
15072;DHT22;7635;56.696;13.002;2022-11-20T13:10:37;1.20;99.90
15072;DHT22;7635;56.696;13.002;2022-11-20T13:13:10;1.10;99.90
15072;DHT22;7635;56.696;13.002;2022-11-20T13:15:47;1.10;99.90
15072;DHT22;7635;56.696;13.002;2022-11-20T13:18:17;1.10;99.90
15072;DHT22;7635;56.696;13.002;2022-11-20T13:20:45;1.10;99.90
15072;DHT22;7635;56.696;13.002;2022-11-20T13:23:23;1.10;99.90
15072;DHT22;7635;56.696;13.002;2022-11-20T13:26:03;1.10;99.90
15072;DHT22;7635;56.696;13.002;2022-11-20T13:28:34;1.10;99.90
15072;DHT22;7635;56.696;13.002;2022-11-20T13:31:01;1.10;99.90
15072;DHT22;7635;56.696;13.002;2022-11-20T13:33:30;1.00;99.90
15072;DHT22;7635;56.696;13.002;2022-11-20T13:36:00;1.00;99.90
15072;DHT22;7635;56.696;13.002;2022-11-20T13:38:28;1.00;99.90
15072;DHT22;7635;56.696;13.002;2022-11-20T13:40:58;1.00;99.90
15072;DHT22;7635;56.696;13.002;2022-11-20T13:43:34;1.00;99.90
15072;DHT22;7635;56.696;13.002;2022-11-20T13:46:03;1.00;99.90
15072;DHT22;7635;56.696;13.002;2022-11-20T13:48:33;1.00;99.90
15072;DHT22;7635;56.696;13.002;2022-11-20T13:51:09;0.90;99.90
15072;DHT22;7635;56.696;13.002;2022-11-20T13:54:11;0.90;99.90
15072;DHT22;7635;56.696;13.002;2022-11-20T13:56:52;0.90;99.90
15072;DHT22;7635;56.696;13.002;2022-11-20T13:59:39;0.90;99.90
15072;DHT22;7635;56.696;13.002;2022-11-20T14:02:11;0.80;99.90
15072;DHT22;7635;56.696;13.002;2022-11-20T14:04:42;0.80;99.90
15072;DHT22;7635;56.696;13.002;2022-11-20T14:07:11;0.80;99.90
15072;DHT22;7635;56.696;13.002;2022-11-20T14:09:38;0.80;99.90
15072;DHT22;7635;56.696;13.002;2022-11-20T14:12:16;0.80;99.90
15072;DHT22;7635;56.696;13.002;2022-11-20T14:14:48;0.80;99.90
15072;DHT22;7635;56.696;13.002;2022-11-20T14:17:19;0.70;99.90
15072;DHT22;7635;56.696;13.002;2022-11-20T14:19:47;0.70;99.90
15072;DHT22;7635;56.696;13.002;2022-11-20T14:22:18;0.70;99.90
15072;DHT22;7635;56.696;13.002;2022-11-20T14:24:45;0.70;99.90
15072;DHT22;7635;56.696;13.002;2022-11-20T14:27:16;0.70;99.90
15072;DHT22;7635;56.696;13.002;2022-11-20T14:29:45;0.60;99.90
15072;DHT22;7635;56.696;13.002;2022-11-20T14:32:15;0.60;99.90
15072;DHT22;7635;56.696;13.002;2022-11-20T14:34:44;0.60;99.90
15072;DHT22;7635;56.696;13.002;2022-11-20T14:37:13;0.50;99.90
15072;DHT22;7635;56.696;13.002;2022-11-20T14:39:49;0.50;99.90
15072;DHT22;7635;56.696;13.002;2022-11-20T14:42:20;0.50;99.90
15072;DHT22;7635;56.696;13.002;2022-11-20T14:44:48;0.50;99.90
15072;DHT22;7635;56.696;13.002;2022-11-20T14:47:20;0.50;99.90
15072;DHT22;7635;56.696;13.002;2022-11-20T14:49:49;0.50;99.90
15072;DHT22;7635;56.696;13.002;2022-11-20T14:52:18;0.40;99.90
15072;DHT22;7635;56.696;13.002;2022-11-20T14:54:46;0.40;99.90
15072;DHT22;7635;56.696;13.002;2022-11-20T14:57:35;0.30;99.90
15072;DHT22;7635;56.696;13.002;2022-11-20T15:00:17;0.30;99.90
15072;DHT22;7635;56.696;13.002;2022-11-20T15:02:45;0.30;99.90
15072;DHT22;7635;56.696;13.002;2022-11-20T15:05:13;0.30;99.90
15072;DHT22;7635;56.696;13.002;2022-11-20T15:07:41;0.20;99.90
15072;DHT22;7635;56.696;13.002;2022-11-20T15:10:12;0.20;99.90
15072;DHT22;7635;56.696;13.002;2022-11-20T15:12:48;0.20;99.90
15072;DHT22;7635;56.696;13.002;2022-11-20T15:15:19;0.20;99.90
15072;DHT22;7635;56.696;13.002;2022-11-20T15:17:47;0.20;99.90
15072;DHT22;7635;56.696;13.002;2022-11-20T15:20:15;0.20;99.90
15072;DHT22;7635;56.696;13.002;2022-11-20T15:22:42;0.10;99.90
15072;DHT22;7635;56.696;13.002;2022-11-20T15:25:13;0.10;99.90
15072;DHT22;7635;56.696;13.002;2022-11-20T15:27:43;0.10;99.90
15072;DHT22;7635;56.696;13.002;2022-11-20T15:30:14;0.10;99.90
15072;DHT22;7635;56.696;13.002;2022-11-20T15:32:43;0.00;99.90
15072;DHT22;7635;56.696;13.002;2022-11-20T15:35:10;0.00;99.90
15072;DHT22;7635;56.696;13.002;2022-11-20T15:37:37;0.00;99.90
15072;DHT22;7635;56.696;13.002;2022-11-20T15:40:06;-0.10;99.90
15072;DHT22;7635;56.696;13.002;2022-11-20T15:42:33;-0.10;99.90
15072;DHT22;7635;56.696;13.002;2022-11-20T15:45:01;-0.10;99.90
15072;DHT22;7635;56.696;13.002;2022-11-20T15:47:32;-0.10;99.90
15072;DHT22;7635;56.696;13.002;2022-11-20T15:49:59;-0.10;99.90
15072;DHT22;7635;56.696;13.002;2022-11-20T15:52:26;-0.10;99.90
15072;DHT22;7635;56.696;13.002;2022-11-20T15:54:53;-0.10;99.90
15072;DHT22;7635;56.696;13.002;2022-11-20T15:57:20;-0.20;99.90